Time;durP1;ratioP1;P1;durP2;ratioP2;P2;SDS_P1;SDS_P2;PMS_P1;PMS_P2;Temp;Humidity;BMP_temperature;BMP_pressure;BME280_temperature;BME280_humidity;BME280_pressure;Samples;Min_cycle;Max_cycle;Signal;HPM_P1;HPM_P2
2022/03/28 00:01:59;;;;;;;;;3.40;3.40;;;;;7.98;62.51;100926.03;5095861;28;8839;-62
2022/03/28 00:04:26;;;;;;;;;10.00;10.00;;;;;7.95;62.44;100919.09;5096243;28;8824;-64
2022/03/28 00:06:54;;;;;;;;;7.80;7.00;;;;;7.95;62.44;100918.22;5096395;28;9469;-63
2022/03/28 00:09:22;;;;;;;;;12.00;10.80;;;;;7.91;62.25;100909.59;5096255;28;8823;-66
2022/03/28 00:11:50;;;;;;;;;11.20;9.00;;;;;7.90;62.36;100910.53;5094995;28;8846;-63
2022/03/28 00:14:18;;;;;;;;;8.60;8.60;;;;;7.86;62.58;100914.28;5095443;28;8953;-64
2022/03/28 00:16:45;;;;;;;;;10.40;9.40;;;;;7.83;62.38;100914.44;5095086;28;8840;-62
2022/03/28 00:19:13;;;;;;;;;7.00;3.80;;;;;7.79;62.36;100906.72;5095036;28;8982;-63
2022/03/28 00:21:41;;;;;;;;;11.60;11.60;;;;;7.75;62.80;100906.03;5107628;28;8813;-63
2022/03/28 00:24:09;;;;;;;;;6.00;5.20;;;;;7.72;62.64;100909.81;5115344;28;8841;-63
2022/03/28 00:26:36;;;;;;;;;10.40;10.00;;;;;7.69;62.65;100897.56;5115063;28;9015;-62
2022/03/28 00:29:04;;;;;;;;;6.20;6.20;;;;;7.67;62.77;100894.13;5115330;28;8976;-62
2022/03/28 00:31:32;;;;;;;;;10.80;9.60;;;;;7.66;62.96;100899.50;5114942;28;8972;-63
2022/03/28 00:34:00;;;;;;;;;12.20;8.60;;;;;7.62;62.82;100892.66;5115253;28;8822;-63
2022/03/28 00:36:27;;;;;;;;;10.00;9.40;;;;;7.56;63.29;100893.84;5115372;28;8910;-65
2022/03/28 00:38:55;;;;;;;;;8.20;8.20;;;;;7.50;63.14;100893.31;5115181;28;8853;-63
2022/03/28 00:41:27;;;;;;;;;7.00;6.40;;;;;7.45;63.08;100890.91;5115302;28;8817;-63
2022/03/28 00:43:55;;;;;;;;;9.20;9.20;;;;;7.40;63.33;100887.63;5114679;28;9588;-63
2022/03/28 00:46:22;;;;;;;;;12.80;12.40;;;;;7.36;63.58;100888.69;5114693;28;8821;-63
2022/03/28 00:48:50;;;;;;;;;6.60;5.20;;;;;7.29;63.44;100897.06;5114664;28;8841;-66
2022/03/28 00:51:18;;;;;;;;;6.20;5.40;;;;;7.19;63.79;100894.00;5103109;28;9590;-63
2022/03/28 00:53:46;;;;;;;;;7.80;7.80;;;;;7.09;63.48;100892.75;5094625;28;8836;-62
2022/03/28 00:56:14;;;;;;;;;12.00;12.00;;;;;7.00;64.34;100882.63;5094169;28;8853;-63
2022/03/28 00:58:41;;;;;;;;;9.20;8.20;;;;;6.95;63.92;100887.28;5094432;28;9939;-62
2022/03/28 01:01:10;;;;;;;;;3.80;2.20;;;;;6.94;64.32;100876.78;5094413;28;8873;-63
2022/03/28 01:03:38;;;;;;;;;9.00;8.20;;;;;6.93;64.51;100875.06;5093902;28;8835;-63
2022/03/28 01:06:06;;;;;;;;;14.60;12.80;;;;;6.92;64.21;100870.72;5094604;28;8848;-64
2022/03/28 01:08:34;;;;;;;;;8.20;7.80;;;;;6.92;63.99;100863.63;5093787;28;8838;-63
2022/03/28 01:11:01;;;;;;;;;7.80;6.80;;;;;6.91;64.51;100867.19;5094001;28;8962;-62
2022/03/28 01:13:29;;;;;;;;;7.40;7.00;;;;;6.90;64.37;100854.88;5093912;28;9555;-63
2022/03/28 01:15:58;;;;;;;;;11.00;9.60;;;;;6.89;64.46;100862.94;5094260;28;8831;-63
2022/03/28 01:18:24;;;;;;;;;12.40;11.20;;;;;6.88;64.32;100863.84;5094677;28;8982;-62
2022/03/28 01:20:52;;;;;;;;;7.00;7.00;;;;;6.87;64.38;100847.13;5099295;28;8960;-63
2022/03/28 01:23:20;;;;;;;;;9.80;9.00;;;;;6.87;64.36;100847.13;5113920;28;8833;-62
2022/03/28 01:25:51;;;;;;;;;11.00;9.20;;;;;6.88;64.00;100850.59;5114333;28;8875;-63
2022/03/28 01:28:18;;;;;;;;;11.00;8.80;;;;;6.88;64.02;100846.19;5114604;28;8838;-62
2022/03/28 01:30:46;;;;;;;;;9.60;9.00;;;;;6.89;64.42;100844.41;5114655;28;8865;-63
2022/03/28 01:33:14;;;;;;;;;11.80;10.80;;;;;6.88;63.80;100834.72;5113291;28;8829;-63
2022/03/28 01:35:42;;;;;;;;;6.80;6.80;;;;;6.89;63.86;100842.59;5113979;28;8826;-63
2022/03/28 01:38:11;;;;;;;;;11.60;11.20;;;;;6.89;63.92;100837.28;5114582;28;8821;-62
2022/03/28 01:40:38;;;;;;;;;9.00;9.00;;;;;6.88;64.28;100829.41;5114601;28;9624;-63
2022/03/28 01:43:06;;;;;;;;;5.40;4.60;;;;;6.89;63.88;100829.34;5113809;28;8942;-62
2022/03/28 01:45:35;;;;;;;;;10.00;9.00;;;;;6.89;63.73;100828.50;5114197;28;8833;-68
2022/03/28 01:48:03;;;;;;;;;7.40;7.40;;;;;6.90;64.30;100817.81;5114538;28;8848;-64
2022/03/28 01:50:30;;;;;;;;;6.00;6.00;;;;;6.90;63.88;100825.78;5109775;28;8840;-63
2022/03/28 01:52:58;;;;;;;;;11.00;9.20;;;;;6.90;64.08;100817.81;5093697;28;8839;-63
2022/03/28 01:55:26;;;;;;;;;3.80;3.80;;;;;6.92;64.11;100815.97;5093538;28;8847;-63
2022/03/28 01:57:54;;;;;;;;;9.00;8.60;;;;;6.95;63.83;100820.25;5093769;28;8974;-63
2022/03/28 02:00:21;;;;;;;;;6.00;4.80;;;;;6.94;63.80;100808.81;5095300;28;8835;-63
2022/03/28 02:02:50;;;;;;;;;10.40;10.00;;;;;6.94;64.25;100807.94;5095406;28;8877;-63
2022/03/28 02:05:17;;;;;;;;;5.60;5.20;;;;;6.92;63.85;100821.28;5095383;28;8846;-63
2022/03/28 02:07:46;;;;;;;;;7.80;7.40;;;;;6.90;64.25;100804.59;5095611;28;8850;-63
2022/03/28 02:10:14;;;;;;;;;9.20;8.60;;;;;6.88;63.83;100808.25;5094233;28;8851;-63
2022/03/28 02:12:42;;;;;;;;;6.80;6.00;;;;;6.86;63.85;100800.41;5093599;28;8855;-65
2022/03/28 02:15:10;;;;;;;;;8.60;8.40;;;;;6.84;63.98;100799.59;5093551;28;8859;-64
2022/03/28 02:17:37;;;;;;;;;6.00;5.40;;;;;6.85;64.39;100803.13;5094052;28;8873;-63
2022/03/28 02:20:05;;;;;;;;;5.20;4.80;;;;;6.84;63.90;100801.41;5094945;28;8878;-63
2022/03/28 02:22:33;;;;;;;;;7.40;7.40;;;;;6.81;64.36;100783.88;5116930;28;8822;-63
2022/03/28 02:25:01;;;;;;;;;6.40;6.40;;;;;6.80;64.05;100782.19;5119509;28;8984;-63
2022/03/28 02:27:28;;;;;;;;;3.60;3.60;;;;;6.79;64.30;100785.75;5118750;28;8837;-62
2022/03/28 02:29:56;;;;;;;;;6.40;6.20;;;;;6.77;64.43;100779.69;5118744;28;8821;-63
2022/03/28 02:32:24;;;;;;;;;10.40;9.20;;;;;6.75;64.07;100775.41;5118965;28;8833;-63
2022/03/28 02:34:52;;;;;;;;;2.60;2.60;;;;;6.72;64.73;100778.19;5119298;28;8830;-63
2022/03/28 02:37:20;;;;;;;;;5.60;3.80;;;;;6.70;64.31;100780.06;5119157;28;8838;-63
2022/03/28 02:39:47;;;;;;;;;9.40;7.00;;;;;6.66;64.02;100770.59;5118706;28;8929;-62
2022/03/28 02:42:16;;;;;;;;;6.00;5.20;;;;;6.63;64.50;100770.72;5119192;28;8825;-62
2022/03/28 02:44:43;;;;;;;;;9.20;8.60;;;;;6.59;64.78;100761.25;5119358;28;8829;-63
2022/03/28 02:47:11;;;;;;;;;8.20;7.80;;;;;6.56;65.01;100759.59;5118969;28;8844;-63
2022/03/28 02:49:38;;;;;;;;;0.60;0.60;;;;;6.54;64.82;100765.91;5118702;28;8867;-63
2022/03/28 02:52:08;;;;;;;;;10.80;10.20;;;;;6.52;64.45;100751.91;5099483;28;9506;-62
2022/03/28 02:54:35;;;;;;;;;9.80;9.20;;;;;6.48;64.45;100759.13;5098223;28;9603;-63
2022/03/28 02:57:03;;;;;;;;;7.00;7.00;;;;;6.47;65.02;100753.91;5097971;28;8835;-63
2022/03/28 02:59:31;;;;;;;;;6.80;6.40;;;;;6.44;65.17;100746.97;5098051;28;8835;-63
2022/03/28 03:01:59;;;;;;;;;10.00;10.00;;;;;6.43;65.11;100739.13;5098087;28;8882;-63
2022/03/28 03:04:26;;;;;;;;;6.40;6.20;;;;;6.42;64.72;100729.47;5097597;28;8825;-62
2022/03/28 03:06:54;;;;;;;;;11.60;10.00;;;;;6.39;65.03;100727.88;5097472;28;8830;-62
2022/03/28 03:09:22;;;;;;;;;7.00;6.80;;;;;6.37;64.59;100726.22;5097914;28;8831;-63
2022/03/28 03:11:49;;;;;;;;;6.00;6.00;;;;;6.33;64.57;100722.88;5097746;28;8982;-63
2022/03/28 03:14:17;;;;;;;;;10.40;9.20;;;;;6.29;65.25;100723.94;5097621;28;8828;-63
2022/03/28 03:16:45;;;;;;;;;9.20;9.00;;;;;6.27;65.35;100722.31;5097542;28;8828;-63
2022/03/28 03:19:13;;;;;;;;;7.00;7.00;;;;;6.24;64.95;100715.41;5097683;28;8823;-64
2022/03/28 03:21:41;;;;;;;;;8.60;6.80;;;;;6.22;65.04;100719.88;5112292;28;8809;-63
2022/03/28 03:24:08;;;;;;;;;8.60;7.80;;;;;6.22;65.06;100717.25;5118052;28;8845;-63
2022/03/28 03:26:36;;;;;;;;;8.80;6.80;;;;;6.20;65.51;100720.88;5118548;28;8822;-62
2022/03/28 03:29:04;;;;;;;;;7.00;5.20;;;;;6.19;65.48;100714.75;5117734;28;8810;-63
2022/03/28 03:31:32;;;;;;;;;7.80;7.00;;;;;6.18;64.91;100714.84;5117660;28;8818;-63
2022/03/28 03:33:59;;;;;;;;;7.00;6.60;;;;;6.16;65.41;100714.06;5117225;28;8845;-63
2022/03/28 03:36:27;;;;;;;;;4.00;3.00;;;;;6.17;64.88;100718.41;5117695;28;8843;-63
2022/03/28 03:38:55;;;;;;;;;12.00;9.80;;;;;6.16;64.94;100716.69;5117810;28;9515;-63
2022/03/28 03:41:23;;;;;;;;;11.20;9.60;;;;;6.14;65.41;100711.47;5117457;28;8829;-63
2022/03/28 03:43:50;;;;;;;;;11.20;10.00;;;;;6.15;65.13;100707.06;5118026;28;8841;-63
2022/03/28 03:46:18;;;;;;;;;6.20;6.20;;;;;6.14;64.88;100710.66;5117858;28;9578;-64
2022/03/28 03:48:46;;;;;;;;;8.40;8.20;;;;;6.13;64.97;100707.13;5117558;28;8805;-63
2022/03/28 03:51:14;;;;;;;;;10.40;9.60;;;;;6.11;65.03;100709.00;5115543;28;8810;-63
2022/03/28 03:53:42;;;;;;;;;9.20;9.20;;;;;6.11;65.55;100708.13;5116766;28;8818;-63
2022/03/28 03:56:09;;;;;;;;;9.40;9.40;;;;;6.09;65.82;100705.59;5117431;28;8857;-63
2022/03/28 03:58:37;;;;;;;;;10.00;9.60;;;;;6.09;65.05;100708.22;5117028;28;8840;-63
2022/03/28 04:01:06;;;;;;;;;6.00;6.00;;;;;6.10;65.54;100711.72;5117608;28;8833;-63
2022/03/28 04:03:34;;;;;;;;;1.40;1.40;;;;;6.08;64.99;100703.84;5116526;28;8830;-63
2022/03/28 04:06:02;;;;;;;;;8.20;7.00;;;;;6.10;65.44;100701.13;5115999;28;8963;-63
2022/03/28 04:08:29;;;;;;;;;9.40;9.40;;;;;6.10;65.39;100709.06;5117177;28;8818;-63
2022/03/28 04:10:57;;;;;;;;;12.40;9.60;;;;;6.10;65.40;100698.50;5117044;28;9487;-63
2022/03/28 04:13:25;;;;;;;;;11.20;10.40;;;;;6.08;65.37;100700.38;5116640;28;8837;-62
2022/03/28 04:15:52;;;;;;;;;8.60;8.60;;;;;6.07;64.97;100696.00;5115960;28;8839;-62
2022/03/28 04:18:20;;;;;;;;;7.80;7.80;;;;;6.05;64.99;100693.44;5116006;28;8837;-63
2022/03/28 04:20:48;;;;;;;;;12.40;8.40;;;;;6.04;65.49;100706.72;5106084;28;8819;-63
2022/03/28 04:23:16;;;;;;;;;9.20;8.60;;;;;6.02;64.95;100693.59;5095951;28;8816;-63
2022/03/28 04:25:44;;;;;;;;;10.00;9.80;;;;;5.99;65.27;100688.44;5095525;28;8879;-62
2022/03/28 04:28:11;;;;;;;;;7.60;5.60;;;;;5.99;65.01;100687.59;5095295;28;8851;-63
2022/03/28 04:30:39;;;;;;;;;6.60;6.20;;;;;5.97;65.04;100694.72;5096013;28;8874;-62
2022/03/28 04:33:09;;;;;;;;;9.80;8.60;;;;;5.96;65.66;100693.03;5096449;28;8859;-63
2022/03/28 04:35:37;;;;;;;;;4.00;4.00;;;;;5.94;65.23;100695.75;5095839;28;8823;-62
2022/03/28 04:38:05;;;;;;;;;10.80;9.40;;;;;5.92;65.78;100694.13;5095870;28;8840;-63
2022/03/28 04:40:33;;;;;;;;;11.20;9.20;;;;;5.88;65.70;100693.41;5096160;28;8854;-62
2022/03/28 04:43:01;;;;;;;;;5.00;5.00;;;;;5.82;66.04;100691.06;5095791;28;8819;-63
2022/03/28 04:45:30;;;;;;;;;5.60;5.60;;;;;5.74;66.05;100687.03;5095586;28;8816;-63
2022/03/28 04:47:58;;;;;;;;;7.80;7.40;;;;;5.64;66.01;100686.63;5095509;28;8812;-63
2022/03/28 04:50:26;;;;;;;;;7.80;7.40;;;;;5.57;66.21;100689.63;5104715;28;8829;-63
2022/03/28 04:52:53;;;;;;;;;2.00;1.80;;;;;5.50;66.57;100693.47;5115018;28;8809;-63
2022/03/28 04:55:21;;;;;;;;;5.80;5.80;;;;;5.45;66.56;100696.34;5115855;28;8846;-62
2022/03/28 04:57:49;;;;;;;;;9.40;8.80;;;;;5.41;66.58;100697.41;5115764;28;8844;-62
2022/03/28 05:00:17;;;;;;;;;10.40;9.80;;;;;5.38;66.11;100697.56;5115194;28;8951;-63
2022/03/28 05:02:45;;;;;;;;;5.00;5.00;;;;;5.33;66.95;100688.97;5115472;28;8831;-63
2022/03/28 05:05:13;;;;;;;;;7.00;6.00;;;;;5.30;66.91;100696.19;5115088;28;8829;-63
2022/03/28 05:07:40;;;;;;;;;10.00;7.40;;;;;5.27;66.44;100696.34;5114757;28;8835;-63
2022/03/28 05:10:08;;;;;;;;;9.40;9.20;;;;;5.25;66.44;100692.91;5115427;28;8821;-63
2022/03/28 05:12:36;;;;;;;;;9.00;7.00;;;;;5.24;66.81;100689.41;5113667;28;8834;-64
2022/03/28 05:15:04;;;;;;;;;12.00;10.00;;;;;5.25;66.61;100693.75;5113565;27;8816;-62
2022/03/28 05:17:31;;;;;;;;;10.00;9.20;;;;;5.27;66.45;100691.06;5094651;28;8811;-62
2022/03/28 05:19:59;;;;;;;;;12.00;10.00;;;;;5.28;66.59;100687.47;5095400;28;8847;-64
2022/03/28 05:22:27;;;;;;;;;11.20;8.80;;;;;5.30;66.38;100680.34;5095026;28;8962;-63
2022/03/28 05:24:55;;;;;;;;;12.20;10.00;;;;;5.33;66.46;100682.88;5093434;28;8862;-63
2022/03/28 05:27:22;;;;;;;;;7.00;7.00;;;;;5.39;66.26;100686.06;5093071;28;8839;-63
2022/03/28 05:29:50;;;;;;;;;11.20;8.60;;;;;5.43;66.82;100677.09;5093916;28;8854;-62
2022/03/28 05:32:18;;;;;;;;;16.40;16.00;;;;;5.49;66.24;100682.06;5093432;28;8820;-62
2022/03/28 05:34:46;;;;;;;;;15.20;13.80;;;;;5.52;66.34;100683.69;5093398;28;8974;-62
2022/03/28 05:37:13;;;;;;;;;15.60;11.20;;;;;5.53;66.13;100685.44;5093069;28;9689;-62
2022/03/28 05:39:41;;;;;;;;;11.20;9.60;;;;;5.58;66.66;100680.78;5093637;28;8851;-62
2022/03/28 05:42:09;;;;;;;;;12.80;11.60;;;;;5.66;66.06;100681.25;5092263;28;8831;-62
2022/03/28 05:44:37;;;;;;;;;10.80;10.00;;;;;5.73;66.21;100683.53;5092169;28;9201;-62
2022/03/28 05:47:04;;;;;;;;;8.20;6.40;;;;;5.80;66.25;100684.13;5091863;28;8842;-62
2022/03/28 05:49:32;;;;;;;;;15.00;12.80;;;;;5.87;65.70;100691.69;5090041;28;8900;-63
2022/03/28 05:52:00;;;;;;;;;3.40;3.40;;;;;5.93;66.11;100687.91;5089058;28;8843;-63
2022/03/28 05:54:28;;;;;;;;;11.80;10.80;;;;;5.96;65.52;100677.16;5089593;28;9504;-63
2022/03/28 05:56:55;;;;;;;;;12.40;10.80;;;;;6.00;65.44;100684.03;5092463;28;8844;-63
2022/03/28 05:59:23;;;;;;;;;3.20;1.80;;;;;6.02;65.82;100674.22;5093537;28;9567;-64
2022/03/28 06:01:51;;;;;;;;;4.40;4.00;;;;;6.05;65.29;100676.69;5094846;28;8847;-63
2022/03/28 06:04:19;;;;;;;;;12.00;10.80;;;;;6.09;65.25;100680.91;5094718;28;8843;-62
2022/03/28 06:06:47;;;;;;;;;6.80;4.80;;;;;6.18;65.63;100672.53;5093206;28;8912;-63
2022/03/28 06:09:15;;;;;;;;;12.20;12.00;;;;;6.27;65.47;100674.69;5094740;28;8831;-63
2022/03/28 06:11:43;;;;;;;;;2.80;2.20;;;;;6.36;65.27;100664.53;5095828;28;9525;-62
2022/03/28 06:14:10;;;;;;;;;7.00;7.00;;;;;6.46;65.10;100668.41;5094952;28;8827;-62
2022/03/28 06:16:38;;;;;;;;;8.20;7.80;;;;;6.60;64.52;100657.97;5095681;28;8863;-63
2022/03/28 06:19:06;;;;;;;;;6.00;6.00;;;;;6.72;64.16;100661.75;5095829;28;8835;-63
2022/03/28 06:21:34;;;;;;;;;7.00;4.40;;;;;6.76;64.33;100660.69;5096236;28;8839;-63
2022/03/28 06:24:05;;;;;;;;;8.20;8.20;;;;;6.83;64.16;100656.78;5094657;28;8990;-62
2022/03/28 06:26:33;;;;;;;;;12.20;11.60;;;;;6.95;63.92;100661.41;5096700;28;8873;-63
2022/03/28 06:29:01;;;;;;;;;12.20;11.20;;;;;7.09;63.67;100653.56;5096838;28;8854;-62
2022/03/28 06:31:29;;;;;;;;;8.80;8.20;;;;;7.23;63.92;100661.63;5095541;28;8883;-63
2022/03/28 06:34:02;;;;;;;;;9.60;9.20;;;;;7.33;63.71;100652.22;5094743;28;9530;-64
2022/03/28 06:36:30;;;;;;;;;4.60;4.00;;;;;7.45;63.04;100646.25;5095051;28;8847;-63
2022/03/28 06:38:58;;;;;;;;;9.80;8.60;;;;;7.55;63.29;100650.09;5094169;28;8835;-63
2022/03/28 06:41:25;;;;;;;;;9.60;8.20;;;;;7.68;63.05;100648.47;5093072;28;8844;-63
2022/03/28 06:43:53;;;;;;;;;10.00;9.80;;;;;7.79;63.50;100645.16;5092263;28;8863;-63
2022/03/28 06:46:21;;;;;;;;;11.60;10.00;;;;;7.93;62.96;100645.22;5092737;28;8985;-63
2022/03/28 06:48:50;;;;;;;;;9.40;7.80;;;;;8.08;62.80;100648.75;5092744;28;8941;-63
2022/03/28 06:51:18;;;;;;;;;6.20;6.00;;;;;8.23;62.61;100642.59;5093773;28;9018;-63
2022/03/28 06:53:48;;;;;;;;;10.00;8.20;;;;;8.38;62.33;100639.88;5093113;28;8836;-62
2022/03/28 06:56:16;;;;;;;;;10.80;7.00;;;;;8.49;62.34;100640.09;5092451;28;8871;-63
2022/03/28 06:58:44;;;;;;;;;9.60;9.00;;;;;8.58;62.43;100636.88;5092653;28;8831;-63
2022/03/28 07:01:12;;;;;;;;;8.20;6.00;;;;;8.61;61.92;100638.50;5095253;28;8886;-63
2022/03/28 07:03:40;;;;;;;;;9.40;9.00;;;;;8.68;62.16;100640.69;5094784;28;9229;-63
2022/03/28 07:06:08;;;;;;;;;11.40;10.60;;;;;8.77;62.11;100639.28;5095296;28;8832;-63
2022/03/28 07:08:36;;;;;;;;;11.40;11.40;;;;;8.90;61.89;100637.59;5094199;28;8986;-63
2022/03/28 07:11:04;;;;;;;;;11.20;11.20;;;;;8.96;61.73;100638.03;5094541;28;8846;-64
2022/03/28 07:13:32;;;;;;;;;12.40;12.20;;;;;9.02;61.58;100635.03;5094904;28;8985;-64
2022/03/28 07:15:59;;;;;;;;;9.80;7.80;;;;;9.11;61.62;100629.13;5093335;28;8876;-63
2022/03/28 07:18:27;;;;;;;;;9.60;9.00;;;;;9.27;61.19;100623.72;5093941;28;8828;-63
2022/03/28 07:20:55;;;;;;;;;12.80;12.80;;;;;9.41;61.20;100621.03;5093975;28;9214;-63
2022/03/28 07:23:31;;;;;;;;;13.60;10.80;;;;;9.52;61.29;100619.41;5094401;28;8866;-64
2022/03/28 07:25:58;;;;;;;;;9.60;9.60;;;;;9.66;61.19;100606.03;5094310;28;8851;-64
2022/03/28 07:28:26;;;;;;;;;10.20;7.80;;;;;9.79;60.46;100612.25;5092902;28;8848;-64
2022/03/28 07:30:54;;;;;;;;;14.40;12.60;;;;;9.93;60.62;100614.88;5093142;28;8852;-63
2022/03/28 07:33:22;;;;;;;;;16.40;13.00;;;;;10.06;60.53;100609.59;5092741;28;8982;-64
2022/03/28 07:35:50;;;;;;;;;14.20;10.00;;;;;10.17;59.70;100609.75;5092462;28;8843;-63
2022/03/28 07:38:19;;;;;;;;;13.80;13.80;;;;;10.29;59.70;100604.47;5092544;28;8954;-63
2022/03/28 07:40:46;;;;;;;;;13.00;12.80;;;;;10.43;59.38;100599.06;5092894;28;8828;-64
2022/03/28 07:43:15;;;;;;;;;13.00;12.20;;;;;10.60;59.59;100593.41;5092723;28;8847;-62
2022/03/28 07:45:43;;;;;;;;;9.80;9.00;;;;;10.78;58.92;100589.44;5092384;28;8974;-62
2022/03/28 07:48:11;;;;;;;;;12.00;9.00;;;;;10.96;59.08;100593.50;5091187;28;8856;-63
2022/03/28 07:50:39;;;;;;;;;13.75;13.50;;;;;11.16;58.50;100581.41;5092459;28;8969;-63
2022/03/28 07:53:09;;;;;;;;;11.50;10.50;;;;;11.38;58.24;100574.41;5093243;28;8839;-62
2022/03/28 07:55:37;;;;;;;;;8.50;7.00;;;;;11.60;57.77;100574.56;5092619;28;8844;-63
2022/03/28 07:58:05;;;;;;;;;13.75;9.25;;;;;11.83;57.67;100571.06;5092721;28;8860;-63
2022/03/28 08:00:33;;;;;;;;;14.50;13.00;;;;;12.04;57.54;100572.13;5091092;28;8835;-62
2022/03/28 08:03:01;;;;;;;;;15.75;14.50;;;;;12.21;56.80;100566.34;5092277;28;9588;-63
2022/03/28 08:05:29;;;;;;;;;16.50;15.50;;;;;12.35;57.22;100563.47;5090863;28;8839;-63
2022/03/28 08:07:57;;;;;;;;;18.75;17.50;;;;;12.51;57.06;100564.84;5091582;28;8843;-63
2022/03/28 08:10:24;;;;;;;;;12.25;11.00;;;;;12.67;56.43;100554.66;5090601;28;8850;-63
2022/03/28 08:12:52;;;;;;;;;18.25;15.75;;;;;12.81;56.78;100559.78;5091299;28;8851;-62
2022/03/28 08:15:21;;;;;;;;;17.25;15.25;;;;;12.92;56.09;100558.94;5090462;28;8860;-62
2022/03/28 08:17:49;;;;;;;;;18.50;15.00;;;;;13.01;56.36;100558.22;5091032;28;8824;-62
2022/03/28 08:20:17;;;;;;;;;16.50;16.00;;;;;13.11;56.17;100549.34;5091768;28;9525;-62
2022/03/28 08:22:46;;;;;;;;;13.00;12.00;;;;;13.25;56.10;100556.25;5093279;28;8835;-63
2022/03/28 08:25:14;;;;;;;;;10.75;9.50;;;;;13.41;55.66;100546.88;5092793;28;8865;-62
2022/03/28 08:27:42;;;;;;;;;11.75;11.00;;;;;13.57;55.47;100541.09;5092020;28;8828;-62
2022/03/28 08:30:10;;;;;;;;;18.00;17.25;;;;;13.73;54.94;100537.03;5092936;28;8849;-62
2022/03/28 08:32:38;;;;;;;;;17.50;16.00;;;;;13.90;54.86;100535.63;5092217;28;8816;-63
2022/03/28 08:35:06;;;;;;;;;14.00;13.00;;;;;14.04;55.50;100540.69;5090633;28;8873;-63
2022/03/28 08:37:34;;;;;;;;;17.50;15.00;;;;;14.20;54.72;100536.59;5090451;28;8963;-63
2022/03/28 08:40:02;;;;;;;;;15.00;13.75;;;;;14.36;54.64;100536.13;5093217;28;8871;-62
2022/03/28 08:42:29;;;;;;;;;15.50;15.00;;;;;14.52;54.01;100536.53;5091799;28;8835;-63
2022/03/28 08:44:58;;;;;;;;;18.25;16.50;;;;;14.66;53.75;100530.81;5093204;28;8866;-62
2022/03/28 08:47:25;;;;;;;;;19.00;18.00;;;;;14.81;54.04;100533.00;5091617;28;8852;-63
2022/03/28 08:49:53;;;;;;;;;25.75;21.25;;;;;14.99;53.58;100526.03;5089969;28;9469;-63
2022/03/28 08:52:23;;;;;;;;;17.50;12.75;;;;;15.21;53.59;100524.97;5088439;28;8847;-63
2022/03/28 08:54:50;;;;;;;;;18.25;16.00;;;;;15.49;53.02;100524.22;5088262;28;8851;-63
2022/03/28 08:57:18;;;;;;;;;20.50;17.50;;;;;15.80;52.86;100515.06;5087608;28;8863;-63
2022/03/28 08:59:46;;;;;;;;;17.50;16.00;;;;;16.06;52.36;100517.03;5088331;28;9235;-63
2022/03/28 09:02:13;;;;;;;;;15.50;14.00;;;;;16.28;52.05;100514.03;5090036;28;8867;-63
2022/03/28 09:04:41;;;;;;;;;14.50;13.00;;;;;16.46;51.86;100521.25;5089660;28;8886;-63
2022/03/28 09:07:09;;;;;;;;;4.00;1.00;;;;;16.69;52.21;100510.97;5090684;28;8861;-63
2022/03/28 09:09:37;;;;;;;;;23.00;20.50;;;;;16.91;51.67;100507.91;5090487;28;8839;-63
2022/03/28 09:12:04;;;;;;;;;20.50;18.00;;;;;17.04;51.79;100497.66;5091082;28;9493;-63
2022/03/28 09:14:32;;;;;;;;;23.25;19.75;;;;;17.20;51.58;100498.72;5090699;28;8975;-63
2022/03/28 09:17:00;;;;;;;;;21.25;19.75;;;;;17.29;51.17;100500.50;5090893;28;9527;-63
2022/03/28 09:19:28;;;;;;;;;14.00;12.00;;;;;17.37;51.03;100497.94;5091457;28;8844;-63
2022/03/28 09:21:56;;;;;;;;;19.75;17.50;;;;;17.52;50.87;100488.34;5092483;28;8867;-63
2022/03/28 09:24:24;;;;;;;;;16.25;15.75;;;;;17.68;51.06;100490.34;5089386;28;9506;-64
2022/03/28 09:26:52;;;;;;;;;18.00;16.00;;;;;17.81;50.68;100488.97;5090362;28;8839;-63
2022/03/28 09:29:20;;;;;;;;;16.50;13.50;;;;;17.98;51.04;100485.41;5088600;28;8828;-63
2022/03/28 09:31:48;;;;;;;;;22.75;19.25;;;;;18.29;50.05;100478.56;5092379;28;8839;-63
2022/03/28 09:34:16;;;;;;;;;18.25;17.00;;;;;18.71;49.53;100474.16;5094595;28;8843;-62
2022/03/28 09:36:46;;;;;;;;;19.67;17.67;;;;;19.20;48.92;100469.84;5091254;28;8970;-63
2022/03/28 09:39:13;;;;;;;;;23.00;17.50;;;;;19.57;48.26;100467.56;5091814;28;8832;-63
2022/03/28 09:41:41;;;;;;;;;21.50;20.00;;;;;19.66;48.24;100467.41;5092573;28;9533;-63
2022/03/28 09:44:09;;;;;;;;;21.50;20.50;;;;;19.62;48.15;100470.59;5092945;28;8843;-62
2022/03/28 09:46:37;;;;;;;;;22.50;18.25;;;;;19.50;48.93;100456.56;5093496;28;8882;-63
2022/03/28 09:49:05;;;;;;;;;26.75;25.00;;;;;19.43;48.56;100460.09;5093205;28;9549;-63
2022/03/28 09:51:34;;;;;;;;;19.50;19.50;;;;;19.37;49.18;100456.22;5093635;28;8832;-63
2022/03/28 09:54:01;;;;;;;;;23.75;22.00;;;;;19.35;49.48;100460.91;5094156;28;8833;-63
2022/03/28 09:56:30;;;;;;;;;25.25;21.50;;;;;19.40;49.38;100455.88;5091793;28;8937;-63
2022/03/28 09:58:59;;;;;;;;;25.50;18.75;;;;;19.48;49.06;100463.13;5090934;28;8831;-63
2022/03/28 10:01:27;;;;;;;;;27.50;27.00;;;;;19.76;48.52;100454.59;5092872;28;8847;-64
2022/03/28 10:03:56;;;;;;;;;22.25;21.50;;;;;20.18;48.43;100451.75;5093616;28;8883;-63
2022/03/28 10:06:24;;;;;;;;;20.25;17.50;;;;;20.71;47.51;100454.66;5093302;28;8835;-63
2022/03/28 10:08:52;;;;;;;;;26.00;25.75;;;;;21.32;46.07;100440.19;5091598;28;8823;-62
2022/03/28 10:11:19;;;;;;;;;24.50;22.00;;;;;22.10;45.12;100446.25;5093714;28;8847;-63
2022/03/28 10:13:47;;;;;;;;;30.80;29.40;;;;;22.81;43.95;100420.25;5093877;28;8832;-63
2022/03/28 10:16:15;;;;;;;;;34.80;31.40;;;;;23.41;43.26;100426.25;5095067;28;8854;-63
2022/03/28 10:18:44;;;;;;;;;29.60;26.60;;;;;24.01;42.18;100428.56;5093996;28;8879;-63
2022/03/28 10:21:14;;;;;;;;;31.40;27.60;;;;;24.56;41.60;100425.88;5092635;28;8969;-63
2022/03/28 10:23:43;;;;;;;;;26.40;25.40;;;;;25.14;40.90;100409.84;5094789;28;8816;-63
2022/03/28 10:26:10;;;;;;;;;24.80;24.40;;;;;25.58;40.66;100412.09;5093730;28;8992;-62
2022/03/28 10:28:38;;;;;;;;;34.20;27.40;;;;;25.93;40.44;100411.75;5092815;28;8859;-62
2022/03/28 10:31:06;;;;;;;;;29.40;28.60;;;;;26.39;39.89;100405.22;5093536;28;8847;-63
2022/03/28 10:33:54;;;;;;;;;29.60;26.80;;;;;26.82;39.28;100403.69;5093397;28;9058;-63
2022/03/28 10:36:23;;;;;;;;;28.80;26.20;;;;;27.10;38.47;100396.00;5093327;28;8862;-62
2022/03/28 10:38:51;;;;;;;;;27.40;25.20;;;;;27.40;38.46;100391.66;5092893;28;8831;-63
2022/03/28 10:41:19;;;;;;;;;29.80;27.20;;;;;27.71;38.06;100388.94;5091702;28;8851;-63
2022/03/28 10:43:47;;;;;;;;;31.20;28.00;;;;;28.01;37.85;100395.47;5091145;28;8851;-63
2022/03/28 10:46:15;;;;;;;;;32.00;28.00;;;;;28.37;37.86;100390.13;5092587;28;8842;-62
2022/03/28 10:48:43;;;;;;;;;26.00;25.00;;;;;28.45;37.28;100389.84;5095030;28;8863;-63
2022/03/28 10:51:11;;;;;;;;;29.60;27.40;;;;;28.60;36.82;100382.09;5093934;28;8828;-63
2022/03/28 10:53:40;;;;;;;;;25.80;23.40;;;;;28.90;36.66;100371.22;5093254;28;8953;-63
2022/03/28 10:56:07;;;;;;;;;31.80;28.40;;;;;29.32;36.02;100367.50;5091241;28;8897;-63
2022/03/28 10:58:35;;;;;;;;;28.60;25.80;;;;;29.50;36.06;100368.28;5091007;28;8832;-63
2022/03/28 11:01:03;;;;;;;;;31.20;29.00;;;;;29.57;35.86;100358.09;5091956;28;8865;-63
2022/03/28 11:03:31;;;;;;;;;22.60;19.40;;;;;29.67;36.00;100368.50;5093115;28;8847;-60
2022/03/28 11:05:59;;;;;;;;;28.80;27.60;;;;;29.83;35.38;100360.44;5092802;28;9579;-60
2022/03/28 11:08:27;;;;;;;;;26.80;23.40;;;;;29.89;35.43;100353.16;5091819;28;8847;-62
2022/03/28 11:10:55;;;;;;;;;31.60;28.20;;;;;29.92;35.40;100347.16;5093648;28;8828;-63
2022/03/28 11:13:22;;;;;;;;;32.60;28.60;;;;;30.06;35.64;100341.22;5093068;28;8823;-62
2022/03/28 11:15:50;;;;;;;;;36.80;33.00;;;;;30.17;35.18;100342.34;5092759;28;8855;-62
2022/03/28 11:18:18;;;;;;;;;33.00;29.40;;;;;30.29;35.16;100338.50;5090364;28;8889;-62
2022/03/28 11:20:46;;;;;;;;;39.40;35.00;;;;;30.38;35.16;100338.97;5089841;28;8865;-63
2022/03/28 11:23:15;;;;;;;;;32.20;27.20;;;;;30.43;34.91;100328.09;5090292;28;8835;-63
2022/03/28 11:25:43;;;;;;;;;32.80;31.40;;;;;30.57;34.37;100321.25;5090824;28;8860;-63
2022/03/28 11:28:11;;;;;;;;;28.40;26.40;;;;;30.74;34.17;100326.63;5089283;28;8823;-61
2022/03/28 11:30:40;;;;;;;;;36.60;31.40;;;;;30.85;34.27;100319.41;5089025;28;9505;-63
2022/03/28 11:33:11;;;;;;;;;36.80;32.20;;;;;31.07;34.25;100318.53;5088494;28;8831;-63